Time;durP1;ratioP1;P1;durP2;ratioP2;P2;SDS_P1;SDS_P2;PMS_P1;PMS_P2;Temp;Humidity;BMP_temperature;BMP_pressure;BME280_temperature;BME280_humidity;BME280_pressure;Samples;Min_cycle;Max_cycle;Signal;HPM_P1;HPM_P2
2023/10/11 00:02:57;;;;;;;8.35;5.42;;;16.20;98.80;;;;;;947392;150;27442;-75
2023/10/11 00:05:24;;;;;;;7.95;5.00;;;16.20;98.70;;;;;;949604;150;27329;-76
2023/10/11 00:07:54;;;;;;;9.63;6.20;;;16.20;98.60;;;;;;949685;150;27424;-75
2023/10/11 00:10:19;;;;;;;6.37;4.67;;;16.20;98.50;;;;;;949266;149;27272;-76
2023/10/11 00:12:43;;;;;;;6.75;5.08;;;16.20;98.40;;;;;;950734;149;27370;-76
2023/10/11 00:15:10;;;;;;;6.70;4.78;;;16.20;98.40;;;;;;950877;148;27422;-76
2023/10/11 00:17:41;;;;;;;9.40;5.45;;;16.10;98.30;;;;;;950047;150;27323;-75
2023/10/11 00:20:19;;;;;;;10.05;5.40;;;16.10;98.40;;;;;;950650;148;27442;-76
2023/10/11 00:22:35;;;;;;;6.37;4.95;;;16.10;98.30;;;;;;945572;147;27351;-76
2023/10/11 00:25:02;;;;;;;6.03;4.85;;;16.00;98.30;;;;;;949798;150;27303;-75
2023/10/11 00:27:29;;;;;;;7.65;5.30;;;16.00;98.40;;;;;;947574;149;27368;-75
2023/10/11 00:29:55;;;;;;;5.92;4.92;;;16.00;98.50;;;;;;945195;149;27482;-76
2023/10/11 00:32:22;;;;;;;6.95;5.37;;;15.90;98.60;;;;;;953529;149;27348;-75
2023/10/11 00:34:49;;;;;;;11.00;5.85;;;15.90;98.80;;;;;;961336;146;27318;-75
2023/10/11 00:37:16;;;;;;;7.40;5.33;;;15.80;99.00;;;;;;940952;149;27368;-75
2023/10/11 00:39:41;;;;;;;7.50;5.08;;;15.80;99.20;;;;;;942836;149;27882;-75
2023/10/11 00:42:08;;;;;;;6.70;5.83;;;15.80;99.30;;;;;;945627;148;27309;-75
2023/10/11 00:44:34;;;;;;;6.70;4.70;;;15.80;99.50;;;;;;949268;148;27362;-76
2023/10/11 00:47:01;;;;;;;5.30;4.80;;;15.80;99.50;;;;;;952008;150;27368;-76
2023/10/11 00:49:39;;;;;;;6.00;4.50;;;15.80;99.50;;;;;;949807;150;27314;-75
2023/10/11 00:51:55;;;;;;;5.28;4.58;;;15.80;99.40;;;;;;946677;149;27429;-75
2023/10/11 00:54:21;;;;;;;7.15;4.87;;;15.80;99.30;;;;;;950381;148;27457;-75
2023/10/11 00:56:48;;;;;;;9.78;5.87;;;15.80;99.30;;;;;;948065;150;27294;-76
2023/10/11 00:59:21;;;;;;;9.58;5.30;;;15.80;99.30;;;;;;948115;147;27802;-78
2023/10/11 01:01:42;;;;;;;8.08;4.78;;;15.80;99.30;;;;;;946445;147;27392;-78
2023/10/11 01:04:08;;;;;;;7.97;4.80;;;15.70;99.40;;;;;;947105;149;27390;-78
2023/10/11 01:06:34;;;;;;;8.63;4.75;;;15.70;99.50;;;;;;947183;148;27356;-75
2023/10/11 01:09:00;;;;;;;6.90;4.45;;;15.70;99.60;;;;;;948995;148;27366;-79
2023/10/11 01:11:28;;;;;;;6.35;4.55;;;15.70;99.70;;;;;;944569;148;27434;-79
2023/10/11 01:13:53;;;;;;;7.80;5.17;;;15.60;99.90;;;;;;948044;150;27913;-77
2023/10/11 01:16:28;;;;;;;7.47;4.90;;;15.60;99.80;;;;;;946378;148;27357;-79
2023/10/11 01:18:53;;;;;;;8.23;4.97;;;15.60;99.90;;;;;;948145;149;27366;-79
2023/10/11 01:21:19;;;;;;;9.88;5.33;;;15.60;99.90;;;;;;947850;150;27269;-78
2023/10/11 01:23:46;;;;;;;6.60;4.80;;;15.60;99.90;;;;;;946481;150;27323;-76
2023/10/11 01:26:12;;;;;;;6.78;4.87;;;15.50;99.90;;;;;;947000;148;27406;-78
2023/10/11 01:28:40;;;;;;;6.87;4.78;;;15.50;99.90;;;;;;946570;150;27368;-78
2023/10/11 01:31:11;;;;;;;5.90;4.23;;;15.50;99.90;;;;;;945143;150;27353;-79
2023/10/11 01:33:43;;;;;;;6.17;4.87;;;15.50;99.90;;;;;;945745;148;27616;-75
2023/10/11 01:36:10;;;;;;;10.08;5.97;;;15.50;99.90;;;;;;946843;150;27357;-79
2023/10/11 01:38:48;;;;;;;5.55;4.45;;;15.50;99.90;;;;;;946217;148;27783;-79
2023/10/11 01:41:20;;;;;;;8.08;4.92;;;15.50;99.90;;;;;;945334;150;27488;-78
2023/10/11 01:43:47;;;;;;;7.33;4.90;;;15.40;99.90;;;;;;946633;150;27247;-78
2023/10/11 01:46:16;;;;;;;6.58;4.87;;;15.50;99.90;;;;;;944519;150;27403;-79
2023/10/11 01:48:43;;;;;;;8.15;5.10;;;15.50;99.90;;;;;;948723;148;27422;-77
2023/10/11 01:51:09;;;;;;;11.12;5.37;;;15.50;99.90;;;;;;946507;149;27427;-79
2023/10/11 01:53:39;;;;;;;6.12;4.83;;;15.50;99.90;;;;;;946890;150;27699;-76
2023/10/11 01:56:05;;;;;;;8.15;4.90;;;15.50;99.90;;;;;;949178;148;27838;-79
2023/10/11 01:58:37;;;;;;;6.67;4.87;;;15.50;99.90;;;;;;946347;148;27338;-78
2023/10/11 02:00:58;;;;;;;7.17;5.47;;;15.50;99.90;;;;;;947183;148;27445;-78
2023/10/11 02:03:25;;;;;;;7.67;4.78;;;15.40;99.90;;;;;;946390;150;27298;-79
2023/10/11 02:05:51;;;;;;;7.28;4.97;;;15.50;99.90;;;;;;950325;148;27247;-77
2023/10/11 02:08:18;;;;;;;7.58;5.58;;;15.50;99.90;;;;;;949034;148;27402;-73
2023/10/11 02:10:45;;;;;;;7.58;5.22;;;15.50;99.90;;;;;;947839;148;27389;-74
2023/10/11 02:13:11;;;;;;;7.28;5.50;;;15.50;99.90;;;;;;947595;150;27422;-74
2023/10/11 02:15:40;;;;;;;8.30;5.28;;;15.40;99.90;;;;;;945590;148;27351;-76
2023/10/11 02:18:10;;;;;;;7.50;5.78;;;15.40;99.90;;;;;;943659;150;27348;-74
2023/10/11 02:20:46;;;;;;;6.47;4.47;;;15.40;99.90;;;;;;946594;150;27398;-73
2023/10/11 02:23:03;;;;;;;7.42;5.03;;;15.30;99.90;;;;;;944772;150;27309;-75
2023/10/11 02:25:30;;;;;;;7.17;5.65;;;15.30;99.90;;;;;;946624;148;27353;-75
2023/10/11 02:27:58;;;;;;;6.17;4.67;;;15.30;99.90;;;;;;947421;148;27390;-73
2023/10/11 02:30:26;;;;;;;7.65;5.12;;;15.20;99.90;;;;;;947423;149;27488;-76
2023/10/11 02:32:52;;;;;;;7.62;5.22;;;15.20;99.90;;;;;;946682;150;27341;-75
2023/10/11 02:35:19;;;;;;;7.65;5.05;;;15.10;99.90;;;;;;945788;148;27356;-73
2023/10/11 02:37:46;;;;;;;6.42;4.97;;;15.10;99.90;;;;;;944880;148;27505;-76
2023/10/11 02:40:16;;;;;;;9.10;4.92;;;15.10;99.90;;;;;;944955;150;27336;-74
2023/10/11 02:42:42;;;;;;;6.20;4.80;;;15.00;99.90;;;;;;946309;149;27360;-74
2023/10/11 02:45:08;;;;;;;7.78;5.03;;;15.00;99.90;;;;;;946775;149;27746;-73
2023/10/11 02:47:34;;;;;;;6.10;4.72;;;15.00;99.90;;;;;;944985;150;27247;-72
2023/10/11 02:50:04;;;;;;;8.68;5.20;;;14.90;99.90;;;;;;933066;148;27464;-74
2023/10/11 02:52:35;;;;;;;7.80;5.20;;;14.90;99.90;;;;;;934858;147;27295;-73
2023/10/11 02:54:54;;;;;;;8.60;5.12;;;14.80;99.90;;;;;;935701;150;27433;-72
2023/10/11 02:57:19;;;;;;;6.95;5.30;;;14.80;99.90;;;;;;933686;149;27853;-74
2023/10/11 02:59:50;;;;;;;6.80;4.72;;;14.70;99.90;;;;;;934424;149;27539;-73
2023/10/11 03:02:15;;;;;;;6.70;5.03;;;14.70;99.90;;;;;;932628;149;27336;-73
2023/10/11 03:04:41;;;;;;;6.70;5.15;;;14.60;99.90;;;;;;934647;149;27344;-73
2023/10/11 03:07:15;;;;;;;8.35;4.92;;;14.60;99.90;;;;;;933219;149;27392;-73
2023/10/11 03:09:37;;;;;;;5.65;4.65;;;14.50;99.90;;;;;;931574;149;27426;-74
2023/10/11 03:12:17;;;;;;;7.47;4.97;;;14.50;99.90;;;;;;934103;149;27351;-74
2023/10/11 03:14:41;;;;;;;5.50;4.85;;;14.40;99.90;;;;;;931486;151;27816;-73
2023/10/11 03:17:06;;;;;;;6.50;5.30;;;14.40;99.90;;;;;;933906;151;27372;-72
2023/10/11 03:19:30;;;;;;;7.37;5.37;;;14.30;99.90;;;;;;932683;149;27437;-74
2023/10/11 03:21:56;;;;;;;8.28;4.83;;;14.30;99.90;;;;;;933813;149;27312;-74
2023/10/11 03:24:32;;;;;;;6.70;5.27;;;14.20;99.90;;;;;;932971;151;27424;-73
2023/10/11 03:26:48;;;;;;;6.95;4.90;;;14.20;99.90;;;;;;935319;149;27838;-74
2023/10/11 03:29:18;;;;;;;7.50;5.60;;;14.10;99.90;;;;;;935468;151;27330;-75
2023/10/11 03:31:44;;;;;;;6.87;5.33;;;14.10;99.90;;;;;;934553;150;27483;-73
2023/10/11 03:34:11;;;;;;;8.73;5.03;;;14.00;99.90;;;;;;933003;151;27352;-73
2023/10/11 03:36:43;;;;;;;8.67;5.40;;;13.90;99.90;;;;;;932510;149;27296;-73
2023/10/11 03:39:10;;;;;;;8.23;5.77;;;13.90;99.90;;;;;;935490;149;27345;-72
2023/10/11 03:41:45;;;;;;;6.73;5.33;;;13.90;99.90;;;;;;934185;151;27315;-74
2023/10/11 03:44:17;;;;;;;8.40;5.20;;;13.80;99.90;;;;;;932185;149;27401;-74
2023/10/11 03:46:39;;;;;;;7.85;5.72;;;13.80;99.90;;;;;;932567;149;28559;-75
2023/10/11 03:49:36;;;;;;;9.70;6.35;;;13.70;99.90;;;;;;935380;150;27462;-74
2023/10/11 03:51:43;;;;;;;6.90;5.40;;;13.70;99.90;;;;;;945789;150;27856;-74
2023/10/11 03:54:07;;;;;;;8.87;5.93;;;13.70;99.90;;;;;;946057;149;28583;-73
2023/10/11 03:56:35;;;;;;;8.00;5.60;;;13.60;99.90;;;;;;946600;148;27339;-75
2023/10/11 03:59:00;;;;;;;7.60;5.00;;;13.60;99.90;;;;;;949689;147;27360;-74
2023/10/11 04:01:36;;;;;;;8.03;5.23;;;13.50;99.90;;;;;;947171;150;27343;-74
2023/10/11 04:03:54;;;;;;;7.07;5.30;;;13.50;99.90;;;;;;946516;148;27435;-74
2023/10/11 04:06:20;;;;;;;7.13;5.57;;;13.50;99.90;;;;;;946370;150;27381;-74
2023/10/11 04:08:55;;;;;;;6.13;5.10;;;13.40;99.90;;;;;;947235;148;27422;-74
2023/10/11 04:11:29;;;;;;;5.50;4.95;;;13.50;99.90;;;;;;943819;149;27828;-75
2023/10/11 04:13:46;;;;;;;5.67;4.70;;;13.40;99.90;;;;;;946814;149;27379;-73
2023/10/11 04:16:18;;;;;;;6.87;5.50;;;13.40;99.90;;;;;;944567;149;27357;-76
2023/10/11 04:18:43;;;;;;;7.70;5.65;;;13.40;99.90;;;;;;945444;150;27360;-73
2023/10/11 04:23:39;;;;;;;9.43;5.50;;;13.30;99.90;;;;;;945348;148;27458;-73
2023/10/11 04:26:08;;;;;;;6.43;4.80;;;13.30;99.90;;;;;;947631;148;27423;-74
2023/10/11 04:28:31;;;;;;;8.63;4.90;;;13.30;99.90;;;;;;947221;150;27239;-73
2023/10/11 04:31:28;;;;;;;6.77;4.93;;;13.30;99.90;;;;;;945345;150;27448;-75
2023/10/11 04:33:24;;;;;;;7.30;5.40;;;13.20;99.90;;;;;;944671;150;27357;-74
2023/10/11 04:35:57;;;;;;;9.47;5.17;;;13.20;99.90;;;;;;946761;148;27434;-77
2023/10/11 04:38:23;;;;;;;7.47;4.90;;;13.20;99.90;;;;;;944873;150;27390;-73
2023/10/11 04:40:51;;;;;;;6.10;4.70;;;13.20;99.90;;;;;;946004;148;27420;-75
2023/10/11 04:45:45;;;;;;;6.90;5.47;;;13.10;99.90;;;;;;946499;148;27370;-73
2023/10/11 04:48:29;;;;;;;7.57;5.67;;;13.10;99.90;;;;;;945574;150;27407;-75
2023/10/11 04:50:47;;;;;;;8.47;5.50;;;13.10;99.90;;;;;;947027;149;27386;-75
2023/10/11 04:53:17;;;;;;;10.20;6.70;;;13.10;99.90;;;;;;945568;149;27319;-75
2023/10/11 04:55:37;;;;;;;9.80;5.83;;;13.00;99.90;;;;;;945486;148;27408;-76
2023/10/11 04:58:07;;;;;;;7.23;5.33;;;13.00;99.90;;;;;;945974;150;27325;-75
2023/10/11 05:00:44;;;;;;;11.57;7.00;;;13.00;99.90;;;;;;945185;149;27454;-75
2023/10/11 05:03:02;;;;;;;7.43;5.20;;;13.00;99.90;;;;;;949641;147;27309;-75
2023/10/11 05:05:27;;;;;;;8.83;5.40;;;12.90;99.90;;;;;;943811;148;27423;-75
2023/10/11 05:08:05;;;;;;;6.33;5.13;;;12.90;99.90;;;;;;946177;150;27367;-75
2023/10/11 05:12:57;;;;;;;10.00;7.27;;;12.90;99.90;;;;;;945326;150;27346;-75
2023/10/11 05:15:15;;;;;;;10.47;6.80;;;12.90;99.90;;;;;;947312;148;27308;-75
2023/10/11 05:17:41;;;;;;;7.13;5.40;;;12.90;99.90;;;;;;947663;147;27473;-75
2023/10/11 05:32:54;;;;;;;8.07;5.67;;;12.80;99.90;;;;;;947263;150;27322;-75
2023/10/11 05:51:19;;;;;;;6.33;5.20;;;12.60;99.90;;;;;;945658;150;27333;-75
2023/10/11 05:53:44;;;;;;;13.20;5.20;;;12.50;99.90;;;;;;947852;148;27368;-75
2023/10/11 05:56:20;;;;;;;5.97;4.63;;;12.60;99.90;;;;;;947334;148;27328;-75
2023/10/11 05:58:37;;;;;;;6.63;4.73;;;12.60;99.90;;;;;;945774;148;27357;-75
2023/10/11 06:01:07;;;;;;;8.57;5.47;;;12.60;99.90;;;;;;947381;148;27323;-75
2023/10/11 06:03:35;;;;;;;6.73;5.53;;;12.60;99.90;;;;;;948463;148;27387;-75
2023/10/11 06:05:59;;;;;;;7.60;5.57;;;12.50;99.90;;;;;;945869;149;27318;-75
2023/10/11 06:08:24;;;;;;;7.43;5.17;;;12.60;99.90;;;;;;946767;149;27356;-75
2023/10/11 06:10:50;;;;;;;10.47;4.73;;;12.60;99.90;;;;;;945869;148;27415;-75
2023/10/11 06:13:17;;;;;;;6.90;5.37;;;12.60;99.90;;;;;;947703;150;27330;-76
2023/10/11 06:15:43;;;;;;;6.87;4.97;;;12.70;99.90;;;;;;945909;148;27350;-76
2023/10/11 06:18:35;;;;;;;7.17;5.30;;;12.90;99.90;;;;;;945309;150;27346;-76
2023/10/11 06:20:39;;;;;;;5.15;4.42;;;13.00;99.90;;;;;;946968;149;27420;-76
2023/10/11 06:23:03;;;;;;;12.95;5.72;;;13.20;99.90;;;;;;947168;150;27439;-76
2023/10/11 06:28:15;;;;;;;7.80;5.42;;;13.80;99.90;;;;;;945366;150;27437;-76
2023/10/11 06:30:46;;;;;;;6.00;5.30;;;14.20;99.90;;;;;;947501;150;27434;-76
2023/10/11 06:33:08;;;;;;;6.92;5.50;;;14.60;99.90;;;;;;948735;150;27286;-76
2023/10/11 06:35:43;;;;;;;8.78;4.78;;;15.10;99.90;;;;;;945073;150;27365;-76
2023/10/11 06:38:04;;;;;;;10.78;5.08;;;15.50;99.90;;;;;;946745;149;27357;-76
2023/10/11 06:40:39;;;;;;;8.53;4.58;;;16.00;99.90;;;;;;944910;148;27305;-76
2023/10/11 06:43:06;;;;;;;9.38;5.10;;;16.50;99.90;;;;;;947435;148;27362;-76
2023/10/11 06:45:32;;;;;;;7.37;4.80;;;17.00;99.90;;;;;;945629;149;27431;-76
2023/10/11 06:48:06;;;;;;;7.85;5.50;;;17.50;99.90;;;;;;947882;148;27438;-76
2023/10/11 06:50:25;;;;;;;6.37;5.25;;;18.00;99.90;;;;;;944604;149;27402;-76
2023/10/11 06:52:53;;;;;;;7.28;5.25;;;18.50;99.90;;;;;;946393;148;27880;-76
2023/10/11 06:55:22;;;;;;;7.65;4.72;;;19.10;99.90;;;;;;947011;147;27341;-76
2023/10/11 06:57:51;;;;;;;5.80;4.83;;;19.70;99.90;;;;;;943304;149;27342;-76
2023/10/11 07:00:24;;;;;;;6.70;4.67;;;20.30;99.90;;;;;;947347;150;27531;-76
2023/10/11 07:03:21;;;;;;;6.55;4.75;;;20.90;99.90;;;;;;946034;150;27405;-76
2023/10/11 07:05:40;;;;;;;5.65;4.78;;;21.60;99.90;;;;;;943479;150;27365;-76
2023/10/11 07:08:05;;;;;;;14.95;5.72;;;22.30;99.90;;;;;;947229;149;27458;-76
2023/10/11 07:10:31;;;;;;;6.83;4.97;;;22.90;99.20;;;;;;946258;149;27385;-76
2023/10/11 07:13:12;;;;;;;4.72;4.03;;;23.50;97.10;;;;;;946891;149;27333;-76
2023/10/11 07:15:37;;;;;;;6.30;4.55;;;24.10;95.00;;;;;;947311;149;27858;-76
2023/10/11 07:18:08;;;;;;;6.75;4.17;;;24.80;93.10;;;;;;946972;149;27321;-76
2023/10/11 07:20:49;;;;;;;5.55;4.60;;;25.40;90.70;;;;;;944609;149;27317;-76
2023/10/11 07:23:19;;;;;;;5.55;4.40;;;26.00;87.80;;;;;;943638;150;27437;-76
2023/10/11 07:25:45;;;;;;;7.08;5.05;;;26.50;85.50;;;;;;945108;149;27421;-76
2023/10/11 07:28:11;;;;;;;7.08;4.87;;;27.00;81.40;;;;;;947628;148;27487;-76
2023/10/11 07:30:37;;;;;;;5.47;4.85;;;27.50;79.30;;;;;;947758;149;27327;-76
2023/10/11 07:33:04;;;;;;;7.17;4.65;;;27.90;77.00;;;;;;946524;149;27288;-76
2023/10/11 07:35:29;;;;;;;5.03;4.35;;;28.40;75.30;;;;;;946647;149;27786;-76
2023/10/11 07:37:56;;;;;;;7.05;4.55;;;28.70;73.90;;;;;;946145;148;26726;-76
2023/10/11 07:40:33;;;;;;;6.25;4.72;;;29.10;72.50;;;;;;946377;148;27449;-77
2023/10/11 07:42:54;;;;;;;6.12;4.70;;;29.50;70.40;;;;;;947800;149;26352;-76
2023/10/11 07:45:15;;;;;;;7.92;4.40;;;29.80;69.20;;;;;;947769;150;27339;-77
2023/10/11 07:47:52;;;;;;;7.03;4.58;;;30.10;67.70;;;;;;945017;148;26255;-76
2023/10/11 07:50:09;;;;;;;4.83;4.05;;;30.40;66.70;;;;;;946536;149;27298;-77
2023/10/11 07:52:35;;;;;;;4.67;4.28;;;30.70;65.90;;;;;;946950;148;27319;-77
2023/10/11 07:55:05;;;;;;;7.67;4.80;;;30.90;65.10;;;;;;947128;149;27423;-76
2023/10/11 07:57:28;;;;;;;6.33;4.53;;;31.20;64.50;;;;;;944195;149;27325;-76
2023/10/11 07:59:55;;;;;;;5.40;4.35;;;31.40;63.40;;;;;;946538;148;27400;-76
2023/10/11 08:02:29;;;;;;;5.37;4.28;;;31.70;62.60;;;;;;946415;148;27368;-76
2023/10/11 08:04:54;;;;;;;5.50;4.25;;;32.00;61.60;;;;;;946792;149;27374;-76
2023/10/11 08:07:21;;;;;;;7.22;4.42;;;32.20;61.00;;;;;;946469;148;27334;-76
2023/10/11 08:09:47;;;;;;;4.70;4.30;;;32.50;60.30;;;;;;946937;148;27327;-76
2023/10/11 08:12:14;;;;;;;5.97;4.25;;;32.70;59.90;;;;;;945924;150;27308;-76
2023/10/11 08:14:44;;;;;;;5.50;4.33;;;33.00;59.60;;;;;;944646;148;27459;-77
2023/10/11 08:17:10;;;;;;;6.03;4.25;;;33.20;59.40;;;;;;946249;149;27745;-76
2023/10/11 08:19:33;;;;;;;6.00;3.80;;;33.60;59.10;;;;;;946093;150;27451;-77
2023/10/11 08:22:00;;;;;;;5.47;4.58;;;33.90;58.60;;;;;;945923;150;26217;-77
2023/10/11 08:24:27;;;;;;;8.13;4.30;;;34.30;58.00;;;;;;946846;150;26263;-76
2023/10/11 08:26:53;;;;;;;5.67;4.12;;;34.60;57.40;;;;;;946103;149;26298;-76
2023/10/11 08:29:29;;;;;;;5.92;4.05;;;34.90;56.60;;;;;;946838;149;27756;-77
2023/10/11 08:31:58;;;;;;;5.37;3.55;;;35.20;56.10;;;;;;946887;150;26276;-77
2023/10/11 08:34:25;;;;;;;7.12;4.33;;;35.50;55.60;;;;;;946013;150;26283;-77
2023/10/11 08:36:51;;;;;;;5.47;3.87;;;35.80;55.10;;;;;;948840;150;26247;-77
2023/10/11 08:39:21;;;;;;;4.83;3.87;;;36.10;54.60;;;;;;951351;148;26179;-77
2023/10/11 08:41:44;;;;;;;6.55;4.12;;;36.30;54.00;;;;;;946422;149;26227;-77
2023/10/11 08:44:20;;;;;;;6.15;3.85;;;36.60;53.30;;;;;;945963;148;26227;-77
2023/10/11 08:46:37;;;;;;;4.45;3.98;;;36.80;52.80;;;;;;947168;150;26152;-77
2023/10/11 08:49:04;;;;;;;5.20;3.92;;;37.10;52.10;;;;;;948072;150;26833;-77
2023/10/11 08:51:39;;;;;;;4.72;4.15;;;37.20;51.70;;;;;;950596;148;26219;-77
2023/10/11 08:54:00;;;;;;;5.92;4.03;;;37.40;51.10;;;;;;946744;149;26372;-77
2023/10/11 08:56:24;;;;;;;5.45;4.05;;;37.50;50.60;;;;;;948761;150;26226;-77
2023/10/11 08:58:53;;;;;;;4.33;3.90;;;37.60;50.20;;;;;;949961;150;26231;-77
2023/10/11 09:01:20;;;;;;;5.75;3.77;;;37.70;49.90;;;;;;948276;148;26898;-77
2023/10/11 09:03:46;;;;;;;4.80;3.80;;;37.80;49.60;;;;;;948247;148;26277;-77
2023/10/11 09:06:21;;;;;;;6.00;3.72;;;37.80;49.30;;;;;;944687;150;26185;-77
2023/10/11 09:08:48;;;;;;;5.55;3.50;;;37.80;49.20;;;;;;947410;150;26245;-77
2023/10/11 09:11:35;;;;;;;8.60;3.67;;;37.80;49.10;;;;;;950326;150;26282;-77
2023/10/11 09:13:41;;;;;;;5.67;3.95;;;37.80;49.00;;;;;;943258;149;26215;-77
2023/10/11 09:16:13;;;;;;;5.20;3.58;;;37.80;48.30;;;;;;948154;150;26179;-77
2023/10/11 09:18:41;;;;;;;5.15;3.37;;;37.70;48.00;;;;;;946944;149;26741;-77
2023/10/11 09:21:18;;;;;;;5.67;3.30;;;37.60;47.60;;;;;;950111;149;26344;-77
2023/10/11 09:23:47;;;;;;;4.37;3.30;;;37.60;47.20;;;;;;948180;148;26316;-77
2023/10/11 09:26:21;;;;;;;5.95;3.27;;;37.40;46.80;;;;;;948906;150;26395;-77
2023/10/11 09:28:43;;;;;;;4.33;3.35;;;37.20;46.80;;;;;;949150;149;26251;-81
2023/10/11 09:31:15;;;;;;;5.72;3.60;;;36.90;46.70;;;;;;947421;150;26230;-78
2023/10/11 09:33:49;;;;;;;8.00;3.47;;;36.60;46.60;;;;;;949462;150;26282;-82
2023/10/11 09:36:09;;;;;;;5.50;3.17;;;36.30;46.50;;;;;;948226;149;26279;-80
2023/10/11 09:38:41;;;;;;;5.55;3.60;;;36.10;46.40;;;;;;947386;150;26257;-82
2023/10/11 09:41:08;;;;;;;4.85;3.27;;;35.70;46.40;;;;;;949755;148;26388;-80
2023/10/11 09:43:44;;;;;;;3.95;3.30;;;35.50;46.70;;;;;;950033;150;26288;-82
2023/10/11 09:46:13;;;;;;;5.97;3.50;;;35.20;46.80;;;;;;948854;148;26231;-81
2023/10/11 09:48:41;;;;;;;6.40;3.45;;;35.00;46.70;;;;;;948323;148;26222;-79
2023/10/11 09:51:14;;;;;;;5.72;3.47;;;34.70;46.50;;;;;;945332;149;27439;-83
2023/10/11 09:53:41;;;;;;;4.55;3.10;;;34.50;46.70;;;;;;948852;149;27810;-82
2023/10/11 09:56:04;;;;;;;5.55;3.08;;;34.20;46.80;;;;;;947411;149;27438;-82
2023/10/11 09:58:42;;;;;;;5.83;3.20;;;34.00;46.60;;;;;;949829;150;27247;-77
2023/10/11 10:01:11;;;;;;;4.33;3.35;;;33.80;46.40;;;;;;947799;150;28217;-80
2023/10/11 10:03:38;;;;;;;5.85;3.15;;;33.50;46.30;;;;;;948102;149;27351;-82
2023/10/11 10:06:05;;;;;;;5.55;3.52;;;33.20;46.30;;;;;;948804;149;27323;-81
2023/10/11 10:08:31;;;;;;;4.85;3.20;;;32.90;46.50;;;;;;947391;148;27334;-80
2023/10/11 10:10:58;;;;;;;6.35;3.50;;;32.60;46.70;;;;;;947598;150;27424;-82
2023/10/11 10:13:28;;;;;;;5.33;3.00;;;32.30;46.80;;;;;;949525;150;27801;-81
2023/10/11 10:15:57;;;;;;;4.92;3.50;;;32.10;47.20;;;;;;949246;150;27348;-81
2023/10/11 10:18:21;;;;;;;9.35;3.33;;;31.80;47.50;;;;;;949014;149;27315;-82
2023/10/11 10:20:47;;;;;;;3.47;2.77;;;31.60;47.60;;;;;;946192;150;27457;-82
2023/10/11 10:23:16;;;;;;;5.10;3.15;;;31.40;47.90;;;;;;946617;149;27328;-81
2023/10/11 10:25:50;;;;;;;12.03;3.30;;;31.30;48.00;;;;;;948418;149;27793;-78
2023/10/11 10:28:36;;;;;;;6.55;3.55;;;31.10;47.60;;;;;;948825;148;27332;-82
2023/10/11 10:31:13;;;;;;;7.80;3.87;;;31.00;47.70;;;;;;949228;148;27423;-81
2023/10/11 10:33:38;;;;;;;5.05;2.75;;;30.80;47.70;;;;;;947942;149;27359;-82
2023/10/11 10:36:29;;;;;;;7.83;3.37;;;30.50;47.60;;;;;;949157;148;27371;-75
2023/10/11 10:39:01;;;;;;;8.88;3.60;;;30.40;47.70;;;;;;947573;150;27433;-75
2023/10/11 10:41:33;;;;;;;7.62;3.20;;;30.20;47.90;;;;;;946009;148;27354;-75
2023/10/11 10:44:05;;;;;;;6.42;3.20;;;30.00;47.90;;;;;;947931;150;27476;-76
2023/10/11 10:46:32;;;;;;;5.22;2.85;;;29.80;48.10;;;;;;947804;150;27277;-75
2023/10/11 10:48:59;;;;;;;4.35;2.92;;;29.70;48.30;;;;;;948285;148;27319;-75
2023/10/11 10:51:25;;;;;;;5.72;3.00;;;29.50;48.50;;;;;;949230;147;27435;-74
2023/10/11 10:53:53;;;;;;;5.08;3.10;;;29.40;48.80;;;;;;942390;150;27379;-76
2023/10/11 10:56:29;;;;;;;8.78;3.15;;;29.30;49.10;;;;;;936707;149;27337;-74
2023/10/11 10:59:03;;;;;;;6.00;3.25;;;29.20;49.00;;;;;;936195;149;27890;-74
2023/10/11 11:01:33;;;;;;;8.13;3.50;;;29.10;49.10;;;;;;935280;149;27706;-75
2023/10/11 11:03:58;;;;;;;4.00;2.87;;;29.10;49.20;;;;;;932455;149;27336;-75
2023/10/11 11:06:28;;;;;;;7.78;3.15;;;29.00;49.20;;;;;;937945;151;27459;-76
2023/10/11 11:08:53;;;;;;;8.80;4.00;;;28.90;49.10;;;;;;936628;149;27337;-75
2023/10/11 11:11:27;;;;;;;4.80;3.37;;;28.90;49.30;;;;;;934265;149;27415;-77
2023/10/11 11:13:54;;;;;;;5.85;3.27;;;28.80;49.40;;;;;;935848;151;27351;-75
2023/10/11 11:16:22;;;;;;;5.55;3.05;;;28.70;49.60;;;;;;936789;149;27314;-76
2023/10/11 11:18:47;;;;;;;6.28;3.27;;;28.60;49.70;;;;;;934320;149;27430;-74
2023/10/11 11:21:25;;;;;;;6.80;3.33;;;28.60;49.90;;;;;;935652;149;27274;-74
2023/10/11 11:23:51;;;;;;;7.65;3.58;;;28.50;49.90;;;;;;936484;149;28052;-74
2023/10/11 11:26:23;;;;;;;7.08;2.92;;;28.50;50.00;;;;;;937416;151;27421;-74
2023/10/11 11:29:08;;;;;;;6.28;3.20;;;28.50;50.10;;;;;;935987;151;27347;-74
2023/10/11 11:34:07;;;;;;;6.22;3.22;;;28.40;50.20;;;;;;935652;149;27494;-76
2023/10/11 11:36:34;;;;;;;5.15;3.77;;;28.40;50.20;;;;;;936479;149;27380;-76
2023/10/11 11:41:48;;;;;;;4.58;2.92;;;28.30;50.20;;;;;;935833;149;27401;-74
2023/10/11 11:44:23;;;;;;;7.83;3.87;;;28.30;50.30;;;;;;935707;151;27333;-78
2023/10/11 11:46:41;;;;;;;5.92;3.12;;;28.20;50.40;;;;;;933991;149;27355;-76
2023/10/11 11:49:09;;;;;;;5.72;3.30;;;28.20;50.40;;;;;;937272;149;27899;-76
2023/10/11 11:51:37;;;;;;;6.03;3.50;;;28.20;50.50;;;;;;934879;149;27358;-74
2023/10/11 11:54:01;;;;;;;8.35;3.65;;;28.10;50.60;;;;;;936432;150;27313;-75
2023/10/11 11:56:28;;;;;;;8.05;3.55;;;28.10;50.90;;;;;;949492;148;27347;-74
2023/10/11 11:59:00;;;;;;;8.03;3.67;;;28.10;51.00;;;;;;949131;150;27392;-75
2023/10/11 12:01:26;;;;;;;7.12;3.33;;;28.10;51.00;;;;;;949218;149;27396;-75
2023/10/11 12:03:54;;;;;;;6.50;2.98;;;28.10;51.00;;;;;;948335;149;27268;-75
2023/10/11 12:06:22;;;;;;;5.83;3.50;;;28.10;51.00;;;;;;947629;149;27416;-75
2023/10/11 12:08:57;;;;;;;4.47;3.30;;;28.10;50.90;;;;;;947957;150;27276;-76
2023/10/11 12:11:28;;;;;;;5.70;3.50;;;28.10;51.00;;;;;;947931;150;27388;-75
2023/10/11 12:13:51;;;;;;;7.62;3.20;;;28.10;51.00;;;;;;948120;149;27319;-76
2023/10/11 12:16:22;;;;;;;4.87;3.10;;;28.10;51.00;;;;;;947249;148;27326;-78
2023/10/11 12:18:44;;;;;;;7.65;3.37;;;28.10;51.10;;;;;;947005;150;27428;-75
2023/10/11 12:21:15;;;;;;;6.67;3.17;;;28.00;51.20;;;;;;948134;148;27712;-75
2023/10/11 12:23:50;;;;;;;9.55;3.67;;;28.10;51.10;;;;;;949681;148;27366;-76
2023/10/11 12:26:18;;;;;;;7.05;3.20;;;28.10;51.10;;;;;;949182;149;27255;-76
2023/10/11 12:28:47;;;;;;;6.12;3.12;;;28.10;51.20;;;;;;947447;150;27461;-75
2023/10/11 12:31:14;;;;;;;5.90;3.20;;;28.10;51.10;;;;;;947568;149;27432;-74
2023/10/11 12:33:42;;;;;;;5.50;3.02;;;28.10;51.20;;;;;;948124;150;27316;-75
2023/10/11 12:36:07;;;;;;;5.60;3.05;;;28.10;51.20;;;;;;947788;149;27311;-76
2023/10/11 12:38:38;;;;;;;7.80;3.58;;;28.10;51.00;;;;;;948364;150;27439;-76
2023/10/11 12:41:00;;;;;;;5.58;2.85;;;28.10;50.90;;;;;;947496;150;27260;-76
2023/10/11 12:43:29;;;;;;;4.78;2.80;;;28.10;50.90;;;;;;948813;150;27334;-75
2023/10/11 12:45:53;;;;;;;7.87;3.20;;;28.10;50.90;;;;;;948580;149;27432;-75
2023/10/11 12:48:20;;;;;;;9.13;3.85;;;28.10;51.00;;;;;;948479;148;27351;-75
2023/10/11 12:50:46;;;;;;;6.67;3.58;;;28.20;51.10;;;;;;946573;150;27662;-76
2023/10/11 12:53:13;;;;;;;6.12;3.22;;;28.20;51.00;;;;;;947724;148;27315;-74
2023/10/11 12:55:41;;;;;;;6.05;3.10;;;28.20;51.10;;;;;;947210;147;27378;-74
2023/10/11 12:58:06;;;;;;;7.00;3.33;;;28.20;50.90;;;;;;947313;150;27276;-78
2023/10/11 13:00:37;;;;;;;7.53;3.45;;;28.30;50.70;;;;;;948414;148;27359;-78
2023/10/11 13:03:05;;;;;;;9.53;3.05;;;28.30;50.50;;;;;;947741;149;27424;-75
2023/10/11 13:05:26;;;;;;;4.45;3.00;;;28.30;50.60;;;;;;949344;149;27343;-75
2023/10/11 13:07:54;;;;;;;4.62;2.80;;;28.30;50.40;;;;;;948340;148;27342;-79
2023/10/11 13:10:22;;;;;;;6.37;3.40;;;28.40;50.50;;;;;;949531;149;27339;-75
2023/10/11 13:12:47;;;;;;;8.45;3.00;;;28.40;50.50;;;;;;948686;149;27243;-76
2023/10/11 13:15:16;;;;;;;6.75;3.25;;;28.40;50.10;;;;;;949616;150;27311;-77
2023/10/11 13:17:40;;;;;;;7.15;3.00;;;28.40;50.00;;;;;;950117;149;27306;-79
2023/10/11 13:20:10;;;;;;;6.75;3.12;;;28.50;50.00;;;;;;948038;149;27345;-75
2023/10/11 13:22:32;;;;;;;5.20;2.80;;;28.50;50.00;;;;;;948559;149;27420;-76
2023/10/11 13:24:59;;;;;;;4.97;2.80;;;28.50;49.80;;;;;;947908;150;27395;-75
2023/10/11 13:27:26;;;;;;;7.12;3.22;;;28.60;49.50;;;;;;949920;148;27388;-75
2023/10/11 13:29:52;;;;;;;4.67;2.87;;;28.60;49.30;;;;;;944930;149;28102;-75
2023/10/11 13:32:19;;;;;;;4.75;3.08;;;28.60;49.20;;;;;;948313;150;27268;-75
2023/10/11 13:34:46;;;;;;;8.43;3.17;;;28.50;49.00;;;;;;949013;149;27445;-75